createdAt,value
2022-10-03T00:00:50.399Z,34.1
2022-10-03T00:02:50.467Z,31.5
2022-10-03T00:04:50.122Z,39.5
2022-10-03T00:06:50.393Z,36.0
2022-10-03T00:08:50.329Z,36.0
2022-10-03T00:10:50.242Z,39.1
2022-10-03T00:12:50.290Z,38.0
2022-10-03T00:14:50.297Z,45.8
2022-10-03T00:16:49.608Z,43.5
2022-10-03T00:18:49.800Z,43.5
2022-10-03T00:20:49.769Z,38.0
2022-10-03T00:22:49.988Z,38.0
2022-10-03T00:24:50.166Z,38.6
2022-10-03T00:26:49.611Z,38.6
2022-10-03T00:28:49.751Z,42.6
2022-10-03T00:30:49.986Z,40.3
2022-10-03T00:32:50.028Z,40.3
2022-10-03T00:34:50.538Z,37.0
2022-10-03T00:36:49.991Z,41.0
2022-10-03T00:38:50.224Z,43.0
2022-10-03T00:40:50.289Z,44.7
2022-10-03T00:42:50.152Z,39.1
2022-10-03T00:44:50.513Z,39.1
2022-10-03T00:46:49.996Z,45.6
2022-10-03T00:48:50.528Z,41.0
2022-10-03T00:50:49.677Z,39.9
2022-10-03T00:52:49.707Z,44.2
2022-10-03T00:54:49.737Z,44.2
2022-10-03T00:56:49.991Z,59.0
2022-10-03T00:58:49.896Z,37.4
2022-10-03T01:00:49.886Z,42.4
2022-10-03T01:02:50.325Z,42.5
2022-10-03T01:04:49.617Z,42.5
2022-10-03T01:06:50.039Z,66.3
2022-10-03T01:08:50.081Z,48.7
2022-10-03T01:10:50.277Z,44.2
2022-10-03T01:12:50.322Z,41.4
2022-10-03T01:14:50.273Z,41.4
2022-10-03T01:16:49.618Z,39.6
2022-10-03T01:18:50.514Z,40.6
2022-10-03T01:20:50.477Z,40.6
2022-10-03T01:22:50.546Z,52.0
2022-10-03T01:24:50.550Z,36.1
2022-10-03T01:26:49.905Z,39.1
2022-10-03T01:28:50.232Z,45.9
2022-10-03T01:30:50.330Z,38.2
2022-10-03T01:32:50.518Z,38.2
2022-10-03T01:34:50.034Z,37.5
2022-10-03T01:36:50.401Z,49.3
2022-10-03T01:38:50.346Z,34.2
2022-10-03T01:40:50.363Z,40.7
2022-10-03T01:42:50.427Z,40.7
2022-10-03T01:44:50.338Z,43.0
2022-10-03T01:46:49.651Z,50.9
2022-10-03T01:48:49.722Z,43.4
2022-10-03T01:50:49.610Z,41.3
2022-10-03T01:52:49.722Z,41.3
2022-10-03T01:54:49.637Z,41.6
2022-10-03T01:56:50.078Z,49.3
2022-10-03T01:58:50.017Z,50.9
2022-10-03T02:00:50.026Z,48.0
2022-10-03T02:02:49.591Z,48.0
2022-10-03T02:04:50.186Z,42.3
2022-10-03T02:06:49.565Z,44.0
2022-10-03T02:08:49.928Z,64.7
2022-10-03T02:10:49.918Z,59.3
2022-10-03T02:12:49.995Z,59.3
2022-10-03T02:14:49.936Z,42.4
2022-10-03T02:16:50.233Z,62.4
2022-10-03T02:18:50.369Z,62.4
2022-10-03T02:20:50.280Z,49.3
2022-10-03T02:22:50.282Z,49.3
2022-10-03T02:24:50.228Z,45.6
2022-10-03T02:26:50.425Z,41.4
2022-10-03T02:28:50.435Z,50.8
2022-10-03T02:30:50.362Z,50.8
2022-10-03T02:32:50.410Z,51.0
2022-10-03T02:34:49.815Z,45.1
2022-10-03T02:36:50.134Z,45.1
2022-10-03T02:38:50.096Z,47.1
2022-10-03T02:40:50.051Z,47.1
2022-10-03T02:42:49.941Z,51.3
2022-10-03T02:44:49.919Z,59.3
2022-10-03T02:46:49.817Z,62.3
2022-10-03T02:48:49.921Z,53.8
2022-10-03T02:50:49.782Z,53.8
2022-10-03T02:52:49.884Z,67.6
2022-10-03T02:54:49.883Z,59.6
2022-10-03T02:56:50.451Z,61.2
2022-10-03T02:58:50.467Z,68.4
2022-10-03T03:00:49.619Z,68.4
2022-10-03T03:02:50.089Z,68.4
2022-10-03T03:04:49.675Z,69.6
2022-10-03T03:06:49.991Z,60.3
2022-10-03T03:08:50.446Z,69.1
2022-10-03T03:10:50.282Z,69.1
2022-10-03T03:12:50.439Z,73.6
2022-10-03T03:14:50.396Z,72.2
2022-10-03T03:16:49.834Z,71.4
2022-10-03T03:18:49.801Z,71.4
2022-10-03T03:20:49.895Z,60.8
2022-10-03T03:22:50.047Z,62.7
2022-10-03T03:24:50.096Z,70.8
2022-10-03T03:26:50.252Z,102.1
2022-10-03T03:28:53.701Z,102.1
2022-10-03T03:30:50.107Z,87.1
2022-10-03T03:32:50.012Z,81.7
2022-10-03T03:34:49.747Z,79.3
2022-10-03T03:36:50.039Z,73.0
2022-10-03T03:38:49.914Z,73.0
2022-10-03T03:40:49.815Z,66.8
2022-10-03T03:42:49.688Z,57.7
2022-10-03T03:44:49.627Z,65.9
2022-10-03T03:46:49.944Z,64.3
2022-10-03T03:48:49.860Z,64.3
2022-10-03T03:50:49.983Z,70.9
2022-10-03T03:52:49.937Z,62.8
2022-10-03T03:54:49.828Z,65.8
2022-10-03T03:56:49.944Z,65.8
2022-10-03T03:58:49.878Z,59.4
2022-10-03T04:00:49.967Z,76.9
2022-10-03T04:02:50.241Z,43.4
2022-10-03T04:04:49.642Z,66.7
2022-10-03T04:06:49.819Z,66.7
2022-10-03T04:08:49.701Z,49.0
2022-10-03T04:10:49.886Z,62.1
2022-10-03T04:12:49.784Z,52.8
2022-10-03T04:14:49.949Z,42.7
2022-10-03T04:16:50.210Z,42.7
2022-10-03T04:18:49.616Z,55.7
2022-10-03T04:20:49.644Z,61.7
2022-10-03T04:22:49.681Z,47.6
2022-10-03T04:24:49.566Z,47.6
2022-10-03T04:26:49.839Z,60.2
2022-10-03T04:28:49.642Z,48.5
2022-10-03T04:30:49.730Z,46.7
2022-10-03T04:32:49.736Z,47.9
2022-10-03T04:34:50.048Z,67.9
2022-10-03T04:36:50.174Z,67.9
2022-10-03T04:38:50.381Z,70.0
2022-10-03T04:40:50.482Z,64.6
2022-10-03T04:42:50.295Z,64.6
2022-10-03T04:44:50.376Z,64.6
2022-10-03T04:46:49.761Z,64.6
2022-10-03T04:48:49.821Z,48.4
2022-10-03T04:50:49.764Z,48.4
2022-10-03T04:52:49.818Z,46.9
2022-10-03T04:54:49.853Z,54.0
2022-10-03T04:56:50.153Z,54.0
2022-10-03T04:58:50.166Z,60.2
2022-10-03T05:00:50.259Z,64.6
2022-10-03T05:02:50.392Z,44.8
2022-10-03T05:04:51.894Z,44.8
2022-10-03T05:06:49.968Z,42.0
2022-10-03T05:08:50.087Z,68.8
2022-10-03T05:10:50.031Z,49.7
2022-10-03T05:12:49.994Z,49.7
2022-10-03T05:14:50.065Z,44.4
2022-10-03T05:16:50.299Z,52.3
2022-10-03T05:18:49.707Z,49.1
2022-10-03T05:20:49.671Z,49.1
2022-10-03T05:22:49.671Z,71.2
2022-10-03T05:24:49.777Z,71.2
2022-10-03T05:26:50.012Z,69.0
2022-10-03T05:28:50.127Z,48.7
2022-10-03T05:30:50.031Z,57.3
2022-10-03T05:32:50.179Z,50.7
2022-10-03T05:34:49.625Z,50.7
2022-10-03T05:36:49.921Z,60.8
2022-10-03T05:38:49.849Z,64.5
2022-10-03T05:40:49.805Z,45.9
2022-10-03T05:42:49.680Z,45.9
2022-10-03T05:44:49.624Z,50.2
2022-10-03T05:46:49.986Z,52.7
2022-10-03T05:48:50.122Z,60.5
2022-10-03T05:50:50.013Z,56.4
2022-10-03T05:52:50.044Z,56.4
2022-10-03T05:54:50.233Z,59.7
2022-10-03T05:56:49.603Z,59.5
2022-10-03T05:58:49.643Z,54.8
2022-10-03T06:00:49.655Z,53.0
2022-10-03T06:02:49.878Z,53.0
2022-10-03T06:04:50.114Z,61.7
2022-10-03T06:06:49.591Z,47.8
2022-10-03T06:08:49.867Z,57.1
2022-10-03T06:10:49.809Z,57.1
2022-10-03T06:12:49.894Z,50.9
2022-10-03T06:14:49.888Z,59.5
2022-10-03T06:16:49.796Z,51.6
2022-10-03T06:18:49.878Z,51.6
2022-10-03T06:20:49.685Z,63.3
2022-10-03T06:22:49.849Z,63.3
2022-10-03T06:24:49.703Z,56.1
2022-10-03T06:26:50.034Z,56.2
2022-10-03T06:28:50.010Z,56.2
2022-10-03T06:30:49.966Z,60.7
2022-10-03T06:32:49.589Z,48.0
2022-10-03T06:34:50.159Z,51.8
2022-10-03T06:36:50.293Z,48.2
2022-10-03T06:38:50.409Z,42.1
2022-10-03T06:40:50.349Z,61.2
2022-10-03T06:42:49.694Z,61.2
2022-10-03T06:44:50.201Z,43.2
2022-10-03T06:46:49.595Z,50.8
2022-10-03T06:48:49.738Z,50.1
2022-10-03T06:50:49.609Z,49.3
2022-10-03T06:52:49.726Z,49.3
2022-10-03T06:54:49.658Z,44.7
2022-10-03T06:56:50.340Z,45.9
2022-10-03T06:58:49.702Z,50.0
2022-10-03T07:00:49.700Z,50.0
2022-10-03T07:02:49.937Z,48.9
2022-10-03T07:04:49.886Z,40.8
2022-10-03T07:06:50.581Z,40.8
2022-10-03T07:08:49.705Z,44.3
2022-10-03T07:10:50.522Z,44.3
2022-10-03T07:12:49.574Z,42.3
2022-10-03T07:14:49.804Z,39.4
2022-10-03T07:16:50.024Z,41.1
2022-10-03T07:18:50.464Z,38.9
2022-10-03T07:20:50.232Z,38.9
2022-10-03T07:22:50.371Z,37.8
2022-10-03T07:24:49.709Z,37.7
2022-10-03T07:26:50.105Z,32.7
2022-10-03T07:28:50.222Z,36.2
2022-10-03T07:30:50.222Z,36.2
2022-10-03T07:32:50.385Z,34.5
2022-10-03T07:34:49.741Z,30.4
2022-10-03T07:36:50.122Z,31.5
2022-10-03T07:38:50.282Z,31.5
2022-10-03T07:40:50.343Z,27.8
2022-10-03T07:42:50.157Z,24.6
2022-10-03T07:44:50.206Z,23.6
2022-10-03T07:46:50.300Z,24.1
2022-10-03T07:48:50.217Z,24.1
2022-10-03T07:50:50.146Z,25.2
2022-10-03T07:52:50.335Z,19.7
2022-10-03T07:54:50.446Z,20.5
2022-10-03T07:56:49.629Z,20.5
2022-10-03T07:58:49.794Z,19.7
2022-10-03T08:00:49.752Z,15.3
2022-10-03T08:02:49.771Z,15.9
2022-10-03T08:04:49.711Z,14.7
2022-10-03T08:06:50.071Z,14.7
2022-10-03T08:08:50.203Z,13.4
2022-10-03T08:10:50.356Z,12.1
2022-10-03T08:12:50.260Z,12.7
2022-10-03T08:14:50.460Z,12.7
2022-10-03T08:16:49.817Z,12.1
2022-10-03T08:18:49.876Z,11.0
2022-10-03T08:20:49.743Z,8.5
2022-10-03T08:22:49.961Z,13.0
2022-10-03T08:24:50.108Z,11.6
2022-10-03T08:26:49.751Z,11.6
2022-10-03T08:28:49.947Z,9.0
2022-10-03T08:30:49.939Z,9.8
2022-10-03T08:32:50.285Z,9.8
2022-10-03T08:34:49.919Z,7.9
2022-10-03T08:36:50.165Z,7.9
2022-10-03T08:38:50.085Z,7.7
2022-10-03T08:40:50.254Z,7.6
2022-10-03T08:42:49.909Z,8.9
2022-10-03T08:44:49.964Z,7.0
2022-10-03T08:46:50.359Z,7.0
2022-10-03T08:48:49.663Z,7.2
2022-10-03T08:50:49.809Z,7.1
2022-10-03T08:52:49.831Z,8.8
2022-10-03T08:54:49.912Z,8.8
2022-10-03T08:56:50.301Z,6.5
2022-10-03T08:58:50.411Z,6.6
2022-10-03T09:00:50.414Z,5.6
2022-10-03T09:03:02.300Z,5.3
2022-10-03T09:04:50.346Z,5.3
2022-10-03T09:07:12.538Z,7.2
2022-10-03T09:08:50.512Z,8.2
2022-10-03T09:10:50.511Z,6.1
2022-10-03T09:12:49.568Z,7.5
2022-10-03T09:14:49.629Z,7.5
2022-10-03T09:16:49.900Z,8.5
2022-10-03T09:18:49.950Z,8.7
2022-10-03T09:20:49.869Z,7.3
2022-10-03T09:22:50.079Z,6.3
2022-10-03T09:24:49.993Z,6.3
2022-10-03T09:26:50.142Z,6.3
2022-10-03T09:28:50.201Z,5.0
2022-10-03T09:30:50.133Z,4.7
2022-10-03T09:32:50.191Z,6.1
2022-10-03T09:34:49.982Z,6.1
2022-10-03T09:36:50.356Z,7.0
2022-10-03T09:38:50.393Z,4.9
2022-10-03T09:40:53.408Z,8.9
2022-10-03T09:42:49.719Z,7.3
2022-10-03T09:44:49.672Z,7.3
2022-10-03T09:46:49.981Z,6.5
2022-10-03T09:48:50.375Z,9.3
2022-10-03T09:50:50.252Z,6.9
2022-10-03T09:52:50.513Z,7.1
2022-10-03T09:54:50.436Z,7.1
2022-10-03T09:56:49.647Z,4.7
2022-10-03T09:58:50.318Z,6.3
2022-10-03T10:00:50.225Z,4.1
2022-10-03T10:02:49.575Z,4.1
2022-10-03T10:04:55.133Z,4.8
2022-10-03T10:06:49.888Z,4.4
2022-10-03T10:08:49.985Z,7.4
2022-10-03T10:10:49.978Z,5.3
2022-10-03T10:12:49.935Z,5.0
2022-10-03T10:14:49.815Z,5.0
2022-10-03T10:16:50.489Z,4.2
2022-10-03T10:18:50.231Z,4.2
2022-10-03T10:20:50.072Z,7.9
2022-10-03T10:22:50.316Z,7.9
2022-10-03T10:24:49.580Z,3.7
2022-10-03T10:26:50.042Z,5.8
2022-10-03T10:28:49.963Z,5.8
2022-10-03T10:30:49.877Z,5.4
2022-10-03T10:32:49.988Z,5.4
2022-10-03T10:34:49.646Z,7.5
2022-10-03T10:36:50.095Z,5.3
2022-10-03T10:38:50.211Z,4.1
2022-10-03T10:40:49.984Z,4.1
2022-10-03T10:42:50.075Z,4.1
2022-10-03T10:44:49.912Z,5.3
2022-10-03T10:46:50.301Z,7.1
2022-10-03T10:48:49.824Z,7.1
2022-10-03T10:50:50.451Z,4.3
2022-10-03T10:52:50.478Z,5.1
2022-10-03T10:54:50.513Z,4.3
2022-10-03T10:56:50.167Z,4.3
2022-10-03T10:58:50.230Z,4.0
2022-10-03T11:00:49.830Z,6.0
2022-10-03T11:02:50.354Z,3.0
2022-10-03T11:04:49.867Z,5.1
2022-10-03T11:06:49.555Z,5.2
2022-10-03T11:08:49.670Z,6.7
2022-10-03T11:10:50.496Z,6.7
2022-10-03T11:12:50.470Z,8.1
2022-10-03T11:14:50.227Z,5.6
2022-10-03T11:16:50.398Z,4.0
2022-10-03T11:18:49.705Z,4.0
2022-10-03T11:20:49.718Z,4.1
2022-10-03T11:22:49.586Z,3.0
2022-10-03T11:24:50.423Z,5.8
2022-10-03T11:26:49.808Z,3.9
2022-10-03T11:28:49.787Z,3.9
2022-10-03T11:30:50.330Z,4.6
2022-10-03T11:32:50.379Z,3.6
2022-10-03T11:34:49.714Z,4.2
2022-10-03T11:36:50.207Z,4.2
2022-10-03T11:38:50.437Z,4.5
2022-10-03T11:40:50.419Z,2.8
2022-10-03T11:42:50.343Z,4.9
2022-10-03T11:44:50.348Z,2.6
2022-10-03T11:46:49.892Z,1.6
2022-10-03T11:48:50.030Z,1.6
2022-10-03T11:50:49.986Z,1.8
2022-10-03T11:52:50.043Z,1.8
2022-10-03T11:54:49.976Z,3.4
2022-10-03T11:56:49.596Z,2.7
2022-10-03T11:58:49.815Z,2.7
2022-10-03T12:00:49.743Z,2.5
2022-10-03T12:02:49.927Z,2.5
2022-10-03T12:04:50.096Z,3.4
2022-10-03T12:06:50.270Z,3.4
2022-10-03T12:08:50.388Z,1.8
2022-10-03T12:10:50.448Z,2.1
2022-10-03T12:12:50.361Z,2.3
2022-10-03T12:14:50.482Z,1.5
2022-10-03T12:16:49.909Z,1.9
2022-10-03T12:18:50.409Z,1.9
2022-10-03T12:20:50.275Z,3.4
2022-10-03T12:22:50.367Z,2.8
2022-10-03T12:24:50.225Z,2.8
2022-10-03T12:26:49.701Z,1.9
2022-10-03T12:28:49.799Z,1.9
2022-10-03T12:30:49.645Z,1.4
2022-10-03T12:32:49.870Z,2.9
2022-10-03T12:34:49.688Z,3.5
2022-10-03T12:36:49.870Z,2.7
2022-10-03T12:38:51.120Z,2.7
2022-10-03T12:40:50.402Z,2.7
2022-10-03T12:42:50.479Z,2.1
2022-10-03T12:44:50.370Z,2.1
2022-10-03T12:46:49.793Z,2.6
2022-10-03T12:48:49.988Z,1.9
2022-10-03T12:50:49.870Z,2.7
2022-10-03T12:52:49.935Z,2.5
2022-10-03T12:54:49.830Z,3.4
2022-10-03T12:56:50.406Z,3.4
2022-10-03T12:58:49.682Z,3.5
2022-10-03T13:00:49.637Z,2.4
2022-10-03T13:02:50.180Z,3.9
2022-10-03T13:04:50.009Z,3.8
2022-10-03T13:07:03.170Z,3.8
2022-10-03T13:08:49.826Z,1.6
2022-10-03T13:10:49.732Z,2.8
2022-10-03T13:12:49.872Z,2.5
2022-10-03T13:14:49.902Z,3.4
2022-10-03T13:16:50.239Z,3.4
2022-10-03T13:18:50.329Z,2.7
2022-10-03T13:20:50.487Z,2.4
2022-10-03T13:22:49.558Z,2.9
2022-10-03T13:24:50.379Z,2.2
2022-10-03T13:26:50.545Z,2.2
2022-10-03T13:28:50.448Z,3.0
2022-10-03T13:30:50.700Z,2.7
2022-10-03T13:32:50.173Z,2.0
2022-10-03T13:34:49.748Z,2.0
2022-10-03T13:36:50.222Z,3.5
2022-10-03T13:38:49.973Z,2.6
2022-10-03T13:40:50.042Z,4.1
2022-10-03T13:42:49.989Z,2.4
2022-10-03T13:44:50.085Z,2.4
2022-10-03T13:46:50.550Z,2.9
2022-10-03T13:48:50.444Z,3.2
2022-10-03T13:50:50.547Z,2.1
2022-10-03T13:52:49.581Z,1.4
2022-10-03T13:54:50.506Z,1.4
2022-10-03T13:56:49.800Z,2.2
2022-10-03T13:58:49.775Z,2.2
2022-10-03T14:00:50.001Z,2.2
2022-10-03T14:02:50.015Z,1.4
2022-10-03T14:04:50.152Z,1.5
2022-10-03T14:06:50.470Z,2.4
2022-10-03T14:08:50.496Z,1.8
2022-10-03T14:10:50.495Z,1.3
2022-10-03T14:12:55.605Z,1.3
2022-10-03T14:14:50.492Z,3.0
2022-10-03T14:16:50.067Z,1.2
2022-10-03T14:18:49.905Z,1.2
2022-10-03T14:20:49.855Z,2.0
2022-10-03T14:22:49.587Z,2.0
2022-10-03T14:24:49.555Z,2.0
2022-10-03T14:26:49.672Z,4.2
2022-10-03T14:28:49.624Z,1.2
2022-10-03T14:31:05.340Z,1.9
2022-10-03T14:32:50.082Z,1.9
2022-10-03T14:34:49.796Z,1.7
2022-10-03T14:36:49.940Z,1.7
2022-10-03T14:38:49.894Z,2.9
2022-10-03T14:40:49.910Z,2.9
2022-10-03T14:42:49.692Z,3.2
2022-10-03T14:44:49.662Z,2.4
2022-10-03T14:46:49.944Z,2.4
2022-10-03T14:48:50.088Z,2.1
2022-10-03T14:50:49.917Z,2.1
2022-10-03T14:52:49.778Z,4.0
2022-10-03T14:54:49.874Z,1.3
2022-10-03T14:56:50.066Z,3.0
2022-10-03T14:58:50.142Z,3.0
2022-10-03T15:00:50.011Z,1.9
2022-10-03T15:02:50.312Z,2.7
2022-10-03T15:04:50.452Z,2.2
2022-10-03T15:06:49.833Z,1.4
2022-10-03T15:08:49.857Z,2.6
2022-10-03T15:10:49.859Z,2.6
2022-10-03T15:12:49.770Z,2.2
2022-10-03T15:14:49.749Z,1.6
2022-10-03T15:16:50.054Z,1.6
2022-10-03T15:18:50.172Z,2.3
2022-10-03T15:20:50.174Z,2.3
2022-10-03T15:22:50.172Z,2.4
2022-10-03T15:24:50.159Z,3.0
2022-10-03T15:26:50.246Z,3.0
2022-10-03T15:28:50.136Z,2.4
2022-10-03T15:30:50.057Z,2.4
2022-10-03T15:32:50.351Z,3.8
2022-10-03T15:34:49.621Z,3.8
2022-10-03T15:36:49.999Z,2.6
2022-10-03T15:38:49.904Z,1.5
2022-10-03T15:40:49.870Z,1.6
2022-10-03T15:42:49.704Z,4.5
2022-10-03T15:44:49.899Z,1.6
2022-10-03T15:46:50.138Z,2.1
2022-10-03T15:48:50.431Z,2.1
2022-10-03T15:50:50.545Z,3.7
2022-10-03T15:52:50.583Z,3.5
2022-10-03T15:54:50.521Z,2.5
2022-10-03T15:56:49.867Z,2.3
2022-10-03T15:58:50.034Z,2.3
2022-10-03T16:00:49.885Z,4.3
2022-10-03T16:02:50.195Z,2.1
2022-10-03T16:04:49.652Z,2.3
2022-10-03T16:06:50.045Z,2.1
2022-10-03T16:08:50.094Z,2.1
2022-10-03T16:10:50.008Z,5.2
2022-10-03T16:12:50.030Z,3.8
2022-10-03T16:14:49.881Z,2.1
2022-10-03T16:16:50.015Z,3.2
2022-10-03T16:18:50.018Z,3.2
2022-10-03T16:20:50.378Z,5.6
2022-10-03T16:22:50.261Z,4.2
2022-10-03T16:24:50.427Z,2.4
2022-10-03T16:26:49.829Z,2.4
2022-10-03T16:28:49.681Z,4.1
2022-10-03T16:30:49.696Z,2.6
2022-10-03T16:32:49.629Z,7.0
2022-10-03T16:34:50.307Z,4.4
2022-10-03T16:36:50.440Z,4.4
2022-10-03T16:38:50.396Z,4.9
2022-10-03T16:40:50.462Z,3.4
2022-10-03T16:42:50.448Z,2.8
2022-10-03T16:44:49.524Z,2.8
2022-10-03T16:46:49.959Z,3.7
2022-10-03T16:48:50.035Z,2.6
2022-10-03T16:50:49.857Z,2.5
2022-10-03T16:52:49.821Z,3.9
2022-10-03T16:54:50.483Z,3.2
2022-10-03T16:56:49.879Z,3.2
2022-10-03T16:58:49.968Z,3.2
2022-10-03T17:00:59.577Z,2.8
2022-10-03T17:02:49.840Z,2.8
2022-10-03T17:04:49.846Z,2.9
2022-10-03T17:06:50.135Z,2.9
2022-10-03T17:08:50.242Z,2.9
2022-10-03T17:10:50.208Z,5.5
2022-10-03T17:12:50.233Z,5.5
2022-10-03T17:14:50.358Z,3.8
2022-10-03T17:16:49.601Z,2.6
2022-10-03T17:18:49.897Z,4.2
2022-10-03T17:20:49.949Z,3.0
2022-10-03T17:22:49.907Z,2.5
2022-10-03T17:24:49.876Z,2.5
2022-10-03T17:26:50.146Z,3.3
2022-10-03T17:28:50.063Z,2.9
2022-10-03T17:30:50.290Z,4.8
2022-10-03T17:32:53.395Z,5.2
2022-10-03T17:34:50.126Z,5.2
2022-10-03T17:36:50.451Z,3.3
2022-10-03T17:38:50.599Z,4.5
2022-10-03T17:40:49.708Z,3.8
2022-10-03T17:42:49.725Z,6.9
2022-10-03T17:44:49.841Z,6.9
2022-10-03T17:46:50.076Z,3.5
2022-10-03T17:48:50.175Z,4.9
2022-10-03T17:50:50.285Z,2.8
2022-10-03T17:52:50.411Z,2.8
2022-10-03T17:54:50.494Z,5.0
2022-10-03T17:56:49.627Z,3.3
2022-10-03T17:58:49.858Z,3.1
2022-10-03T18:00:50.163Z,4.6
2022-10-03T18:02:50.413Z,4.2
2022-10-03T18:04:49.924Z,4.2
2022-10-03T18:06:50.145Z,3.7
2022-10-03T18:08:50.144Z,3.0
2022-10-03T18:10:50.080Z,3.5
2022-10-03T18:12:50.028Z,3.8
2022-10-03T18:14:50.194Z,3.8
2022-10-03T18:16:50.434Z,4.2
2022-10-03T18:18:49.822Z,2.8
2022-10-03T18:20:50.425Z,4.0
2022-10-03T18:22:50.472Z,3.5
2022-10-03T18:24:50.418Z,3.5
2022-10-03T18:26:49.848Z,3.9
2022-10-03T18:28:49.842Z,3.4
2022-10-03T18:30:50.296Z,4.2
2022-10-03T18:32:50.236Z,3.6
2022-10-03T18:34:49.883Z,3.6
2022-10-03T18:36:50.451Z,4.9
2022-10-03T18:38:50.277Z,4.6
2022-10-03T18:40:50.228Z,5.0
2022-10-03T18:42:50.102Z,5.0
2022-10-03T18:44:50.444Z,4.8
2022-10-03T18:46:49.743Z,5.6
2022-10-03T18:49:03.208Z,5.6
2022-10-03T18:50:49.950Z,4.8
2022-10-03T18:52:49.940Z,4.8
2022-10-03T18:54:50.040Z,5.6
2022-10-03T18:56:50.263Z,4.4
2022-10-03T18:58:50.170Z,7.4
2022-10-03T19:00:50.112Z,3.9
2022-10-03T19:02:50.330Z,3.9
2022-10-03T19:04:49.855Z,4.4
2022-10-03T19:06:50.008Z,6.9
2022-10-03T19:08:49.995Z,5.2
2022-10-03T19:10:50.076Z,4.1
2022-10-03T19:12:50.210Z,4.1
2022-10-03T19:14:50.147Z,6.3
2022-10-03T19:16:50.459Z,3.7
2022-10-03T19:18:49.687Z,5.6
2022-10-03T19:20:49.759Z,5.6
2022-10-03T19:22:49.709Z,7.1
2022-10-03T19:24:57.689Z,4.4
2022-10-03T19:26:49.631Z,5.6
2022-10-03T19:28:49.709Z,6.2
2022-10-03T19:30:49.786Z,6.2
2022-10-03T19:32:49.729Z,5.1
2022-10-03T19:34:50.237Z,6.0
2022-10-03T19:36:49.559Z,7.6
2022-10-03T19:38:49.618Z,6.3
2022-10-03T19:40:50.431Z,6.3
2022-10-03T19:42:49.556Z,8.8
2022-10-03T19:44:50.361Z,7.0
2022-10-03T19:46:49.881Z,7.0
2022-10-03T19:48:49.854Z,7.2
2022-10-03T19:50:49.986Z,7.5
2022-10-03T19:52:50.024Z,7.5
2022-10-03T19:54:50.110Z,5.2
2022-10-03T19:56:49.655Z,5.7
2022-10-03T19:58:50.431Z,5.7
2022-10-03T20:00:50.504Z,9.4
2022-10-03T20:02:49.636Z,7.6
2022-10-03T20:04:49.915Z,7.0
2022-10-03T20:06:50.137Z,7.5
2022-10-03T20:08:50.172Z,7.5
2022-10-03T20:10:50.205Z,8.6
2022-10-03T20:12:50.277Z,8.1
2022-10-03T20:14:50.406Z,6.2
2022-10-03T20:16:49.795Z,6.2
2022-10-03T20:18:50.194Z,6.5
2022-10-03T20:20:50.065Z,6.8
2022-10-03T20:22:50.141Z,8.5
2022-10-03T20:24:50.182Z,5.6
2022-10-03T20:26:49.697Z,5.6
2022-10-03T20:28:49.712Z,8.0
2022-10-03T20:30:49.820Z,6.8
2022-10-03T20:32:49.879Z,7.1
2022-10-03T20:34:50.510Z,8.0
2022-10-03T20:36:49.891Z,7.7
2022-10-03T20:38:50.148Z,7.7
2022-10-03T20:40:50.083Z,7.4
2022-10-03T20:42:50.090Z,7.6
2022-10-03T20:44:49.990Z,10.9
2022-10-03T20:46:50.538Z,10.9
2022-10-03T20:48:50.497Z,10.8
2022-10-03T20:50:50.462Z,6.1
2022-10-03T20:52:49.746Z,7.3
2022-10-03T20:54:50.545Z,8.9
2022-10-03T20:56:50.060Z,8.9
2022-10-03T20:58:51.016Z,9.2
2022-10-03T21:00:50.438Z,10.2
2022-10-03T21:02:49.797Z,12.6
2022-10-03T21:04:50.480Z,11.4
2022-10-03T21:06:50.259Z,11.4
2022-10-03T21:08:50.161Z,8.2
2022-10-03T21:10:50.189Z,8.2
2022-10-03T21:12:50.150Z,12.0
2022-10-03T21:14:50.384Z,10.2
2022-10-03T21:16:49.758Z,10.2
2022-10-03T21:18:49.736Z,9.9
2022-10-03T21:20:49.757Z,14.4
2022-10-03T21:22:49.768Z,9.8
2022-10-03T21:24:49.699Z,9.8
2022-10-03T21:26:49.778Z,8.1
2022-10-03T21:28:49.679Z,9.6
2022-10-03T21:30:49.633Z,9.2
2022-10-03T21:32:49.798Z,9.2
2022-10-03T21:34:49.571Z,9.6
2022-10-03T21:36:49.814Z,9.6
2022-10-03T21:38:49.715Z,9.8
2022-10-03T21:40:49.904Z,9.2
2022-10-03T21:42:49.792Z,11.2
2022-10-03T21:44:49.794Z,8.4
2022-10-03T21:46:49.982Z,8.4
2022-10-03T21:48:49.859Z,10.7
2022-10-03T21:50:49.665Z,10.7
2022-10-03T21:52:49.559Z,13.0
2022-10-03T21:54:49.638Z,12.1
2022-10-03T21:56:49.970Z,12.2
2022-10-03T21:58:50.133Z,12.1
2022-10-03T22:00:50.123Z,10.5
2022-10-03T22:02:50.422Z,10.1
2022-10-03T22:04:49.769Z,10.1
2022-10-03T22:06:50.111Z,8.8
2022-10-03T22:08:50.231Z,10.0
2022-10-03T22:10:50.151Z,10.7
2022-10-03T22:12:50.184Z,10.7
2022-10-03T22:14:50.084Z,9.8
2022-10-03T22:16:50.228Z,7.8
2022-10-03T22:18:50.048Z,10.8
2022-10-03T22:20:50.251Z,8.9
2022-10-03T22:22:50.291Z,8.0
2022-10-03T22:24:50.503Z,8.0
2022-10-03T22:26:49.592Z,4.7
2022-10-03T22:28:50.523Z,7.8
2022-10-03T22:30:50.495Z,7.5
2022-10-03T22:32:50.403Z,7.5
2022-10-03T22:34:49.836Z,7.3
2022-10-03T22:36:49.880Z,10.2
2022-10-03T22:38:50.015Z,6.2
2022-10-03T22:40:50.216Z,7.7
2022-10-03T22:42:50.257Z,7.7
2022-10-03T22:44:50.253Z,7.4
2022-10-03T22:46:50.477Z,10.8
2022-10-03T22:48:49.658Z,10.8
2022-10-03T22:50:49.862Z,7.6
2022-10-03T22:52:49.893Z,7.6
2022-10-03T22:54:49.956Z,7.0
2022-10-03T22:56:50.387Z,5.7
2022-10-03T22:58:50.444Z,5.7
2022-10-03T23:00:50.309Z,5.6
2022-10-03T23:02:50.377Z,5.6
2022-10-03T23:04:50.451Z,6.5
2022-10-03T23:06:49.679Z,8.0
2022-10-03T23:08:49.722Z,5.1
2022-10-03T23:10:49.849Z,7.0
2022-10-03T23:12:49.912Z,7.0
2022-10-03T23:14:49.798Z,9.3
2022-10-03T23:16:49.947Z,9.3
2022-10-03T23:18:50.115Z,6.4
2022-10-03T23:20:49.953Z,6.4
2022-10-03T23:22:49.806Z,8.8
2022-10-03T23:24:49.749Z,6.6
2022-10-03T23:26:50.043Z,10.8
2022-10-03T23:28:50.078Z,7.9
2022-10-03T23:30:50.063Z,7.9
2022-10-03T23:32:49.677Z,9.5
2022-10-03T23:34:50.238Z,7.3
2022-10-03T23:36:49.674Z,7.1
2022-10-03T23:38:49.696Z,4.6
2022-10-03T23:40:49.699Z,4.6
2022-10-03T23:42:49.773Z,6.3
2022-10-03T23:44:49.771Z,6.1
2022-10-03T23:46:49.919Z,6.0
2022-10-03T23:48:50.210Z,6.0
2022-10-03T23:50:50.181Z,11.8
2022-10-03T23:52:50.216Z,7.9
2022-10-03T23:54:50.297Z,7.9
2022-10-03T23:56:50.455Z,8.9
2022-10-03T23:58:50.530Z,8.9
